sensor_id;sensor_type;location;lat;lon;timestamp;P1;durP1;ratioP1;P2;durP2;ratioP2
36105;SDS011;22159;55.736;38.048;2023-03-09T00:00:30;1.15;;;0.82;;
36105;SDS011;22159;55.736;38.048;2023-03-09T00:02:56;1.20;;;0.70;;
36105;SDS011;22159;55.736;38.048;2023-03-09T00:05:22;1.27;;;0.80;;
36105;SDS011;22159;55.736;38.048;2023-03-09T00:07:49;0.80;;;0.80;;
36105;SDS011;22159;55.736;38.048;2023-03-09T00:10:15;1.08;;;0.98;;
36105;SDS011;22159;55.736;38.048;2023-03-09T00:12:41;0.77;;;0.75;;
36105;SDS011;22159;55.736;38.048;2023-03-09T00:15:08;1.10;;;0.70;;
36105;SDS011;22159;55.736;38.048;2023-03-09T00:17:34;0.88;;;0.73;;
36105;SDS011;22159;55.736;38.048;2023-03-09T00:20:01;0.95;;;0.77;;
36105;SDS011;22159;55.736;38.048;2023-03-09T00:22:41;0.95;;;0.80;;
36105;SDS011;22159;55.736;38.048;2023-03-09T00:25:07;1.02;;;0.80;;
36105;SDS011;22159;55.736;38.048;2023-03-09T00:27:38;1.20;;;0.70;;
36105;SDS011;22159;55.736;38.048;2023-03-09T00:30:04;1.17;;;0.85;;
36105;SDS011;22159;55.736;38.048;2023-03-09T00:32:30;1.67;;;0.68;;
36105;SDS011;22159;55.736;38.048;2023-03-09T00:34:56;1.42;;;0.90;;
36105;SDS011;22159;55.736;38.048;2023-03-09T00:37:22;0.73;;;0.70;;
36105;SDS011;22159;55.736;38.048;2023-03-09T00:39:48;1.25;;;0.75;;
36105;SDS011;22159;55.736;38.048;2023-03-09T00:42:15;1.08;;;0.70;;
36105;SDS011;22159;55.736;38.048;2023-03-09T00:44:41;1.02;;;0.60;;
36105;SDS011;22159;55.736;38.048;2023-03-09T00:47:07;0.70;;;0.57;;
36105;SDS011;22159;55.736;38.048;2023-03-09T00:49:33;0.65;;;0.50;;
36105;SDS011;22159;55.736;38.048;2023-03-09T00:51:59;0.77;;;0.50;;
36105;SDS011;22159;55.736;38.048;2023-03-09T00:54:25;0.68;;;0.68;;
36105;SDS011;22159;55.736;38.048;2023-03-09T00:56:51;0.82;;;0.57;;
36105;SDS011;22159;55.736;38.048;2023-03-09T00:59:17;0.90;;;0.73;;
36105;SDS011;22159;55.736;38.048;2023-03-09T01:01:43;0.60;;;0.60;;
36105;SDS011;22159;55.736;38.048;2023-03-09T01:04:09;2.20;;;0.80;;
36105;SDS011;22159;55.736;38.048;2023-03-09T01:06:35;1.92;;;0.73;;
36105;SDS011;22159;55.736;38.048;2023-03-09T01:09:01;1.30;;;0.60;;
36105;SDS011;22159;55.736;38.048;2023-03-09T01:11:27;0.73;;;0.60;;
36105;SDS011;22159;55.736;38.048;2023-03-09T01:13:53;0.57;;;0.50;;
36105;SDS011;22159;55.736;38.048;2023-03-09T01:16:19;0.70;;;0.60;;
36105;SDS011;22159;55.736;38.048;2023-03-09T01:18:46;1.08;;;0.70;;
36105;SDS011;22159;55.736;38.048;2023-03-09T01:21:12;0.65;;;0.43;;
36105;SDS011;22159;55.736;38.048;2023-03-09T01:23:39;0.50;;;0.50;;
36105;SDS011;22159;55.736;38.048;2023-03-09T01:26:05;0.65;;;0.50;;
36105;SDS011;22159;55.736;38.048;2023-03-09T01:28:32;0.95;;;0.60;;
36105;SDS011;22159;55.736;38.048;2023-03-09T01:31:00;1.13;;;0.55;;
36105;SDS011;22159;55.736;38.048;2023-03-09T01:33:26;0.50;;;0.40;;
36105;SDS011;22159;55.736;38.048;2023-03-09T01:35:52;1.05;;;0.60;;
36105;SDS011;22159;55.736;38.048;2023-03-09T01:38:18;0.68;;;0.68;;
36105;SDS011;22159;55.736;38.048;2023-03-09T01:40:45;0.40;;;0.40;;
36105;SDS011;22159;55.736;38.048;2023-03-09T01:43:25;0.45;;;0.40;;
36105;SDS011;22159;55.736;38.048;2023-03-09T01:48:36;0.68;;;0.40;;
36105;SDS011;22159;55.736;38.048;2023-03-09T01:51:02;1.05;;;0.60;;
36105;SDS011;22159;55.736;38.048;2023-03-09T01:53:28;0.55;;;0.40;;
36105;SDS011;22159;55.736;38.048;2023-03-09T01:55:54;0.50;;;0.50;;
36105;SDS011;22159;55.736;38.048;2023-03-09T01:58:21;0.60;;;0.50;;
36105;SDS011;22159;55.736;38.048;2023-03-09T02:00:49;0.60;;;0.40;;
36105;SDS011;22159;55.736;38.048;2023-03-09T02:03:19;0.40;;;0.40;;
36105;SDS011;22159;55.736;38.048;2023-03-09T02:08:16;0.50;;;0.40;;
36105;SDS011;22159;55.736;38.048;2023-03-09T02:10:45;0.75;;;0.55;;
36105;SDS011;22159;55.736;38.048;2023-03-09T02:13:13;0.60;;;0.40;;
36105;SDS011;22159;55.736;38.048;2023-03-09T02:15:39;0.50;;;0.30;;
36105;SDS011;22159;55.736;38.048;2023-03-09T02:18:06;0.95;;;0.30;;
36105;SDS011;22159;55.736;38.048;2023-03-09T02:23:01;0.57;;;0.50;;
36105;SDS011;22159;55.736;38.048;2023-03-09T02:27:54;0.77;;;0.55;;
36105;SDS011;22159;55.736;38.048;2023-03-09T02:30:21;0.40;;;0.40;;
36105;SDS011;22159;55.736;38.048;2023-03-09T02:32:48;0.50;;;0.40;;
36105;SDS011;22159;55.736;38.048;2023-03-09T02:35:14;0.75;;;0.50;;
36105;SDS011;22159;55.736;38.048;2023-03-09T02:37:41;0.57;;;0.50;;
36105;SDS011;22159;55.736;38.048;2023-03-09T02:40:20;0.50;;;0.50;;
36105;SDS011;22159;55.736;38.048;2023-03-09T02:42:47;1.38;;;0.40;;
36105;SDS011;22159;55.736;38.048;2023-03-09T02:45:16;0.50;;;0.40;;
36105;SDS011;22159;55.736;38.048;2023-03-09T02:47:42;0.75;;;0.60;;
36105;SDS011;22159;55.736;38.048;2023-03-09T02:50:11;0.60;;;0.50;;
36105;SDS011;22159;55.736;38.048;2023-03-09T02:52:37;0.50;;;0.40;;
36105;SDS011;22159;55.736;38.048;2023-03-09T02:55:03;0.77;;;0.50;;
36105;SDS011;22159;55.736;38.048;2023-03-09T02:57:30;0.30;;;0.30;;
36105;SDS011;22159;55.736;38.048;2023-03-09T02:59:56;0.98;;;0.50;;
36105;SDS011;22159;55.736;38.048;2023-03-09T03:02:22;0.77;;;0.47;;
36105;SDS011;22159;55.736;38.048;2023-03-09T03:04:48;0.80;;;0.50;;
36105;SDS011;22159;55.736;38.048;2023-03-09T03:07:14;0.82;;;0.47;;
36105;SDS011;22159;55.736;38.048;2023-03-09T03:09:40;0.50;;;0.43;;
36105;SDS011;22159;55.736;38.048;2023-03-09T03:12:06;1.00;;;0.50;;
36105;SDS011;22159;55.736;38.048;2023-03-09T03:14:32;2.63;;;0.63;;
36105;SDS011;22159;55.736;38.048;2023-03-09T03:16:58;0.65;;;0.40;;
36105;SDS011;22159;55.736;38.048;2023-03-09T03:19:24;0.95;;;0.40;;
36105;SDS011;22159;55.736;38.048;2023-03-09T03:21:51;0.60;;;0.60;;
36105;SDS011;22159;55.736;38.048;2023-03-09T03:24:17;0.73;;;0.55;;
36105;SDS011;22159;55.736;38.048;2023-03-09T03:26:43;0.85;;;0.77;;
36105;SDS011;22159;55.736;38.048;2023-03-09T03:29:09;0.43;;;0.40;;
36105;SDS011;22159;55.736;38.048;2023-03-09T03:31:36;0.80;;;0.50;;
36105;SDS011;22159;55.736;38.048;2023-03-09T03:34:02;2.10;;;0.77;;
36105;SDS011;22159;55.736;38.048;2023-03-09T03:36:28;2.53;;;0.70;;
36105;SDS011;22159;55.736;38.048;2023-03-09T03:38:54;2.72;;;0.85;;
36105;SDS011;22159;55.736;38.048;2023-03-09T03:41:20;0.70;;;0.57;;
36105;SDS011;22159;55.736;38.048;2023-03-09T03:43:46;1.25;;;0.30;;
36105;SDS011;22159;55.736;38.048;2023-03-09T03:46:12;1.20;;;0.50;;
36105;SDS011;22159;55.736;38.048;2023-03-09T03:48:38;6.85;;;0.80;;
36105;SDS011;22159;55.736;38.048;2023-03-09T03:51:04;0.75;;;0.50;;
36105;SDS011;22159;55.736;38.048;2023-03-09T03:53:31;2.58;;;0.80;;
36105;SDS011;22159;55.736;38.048;2023-03-09T03:55:57;0.95;;;0.60;;
36105;SDS011;22159;55.736;38.048;2023-03-09T03:58:23;3.35;;;2.28;;
36105;SDS011;22159;55.736;38.048;2023-03-09T04:00:49;5.40;;;3.08;;
36105;SDS011;22159;55.736;38.048;2023-03-09T04:03:15;8.23;;;3.05;;
36105;SDS011;22159;55.736;38.048;2023-03-09T04:05:41;4.60;;;2.88;;
36105;SDS011;22159;55.736;38.048;2023-03-09T04:08:07;5.90;;;3.08;;
36105;SDS011;22159;55.736;38.048;2023-03-09T04:10:33;4.75;;;2.47;;
36105;SDS011;22159;55.736;38.048;2023-03-09T04:12:59;5.38;;;2.55;;
36105;SDS011;22159;55.736;38.048;2023-03-09T04:15:25;4.47;;;2.03;;
36105;SDS011;22159;55.736;38.048;2023-03-09T04:17:51;3.90;;;2.30;;
36105;SDS011;22159;55.736;38.048;2023-03-09T04:20:17;6.22;;;2.70;;
36105;SDS011;22159;55.736;38.048;2023-03-09T04:22:43;5.15;;;2.53;;
36105;SDS011;22159;55.736;38.048;2023-03-09T04:25:09;3.42;;;1.88;;
36105;SDS011;22159;55.736;38.048;2023-03-09T04:27:35;2.97;;;1.70;;
36105;SDS011;22159;55.736;38.048;2023-03-09T04:30:02;2.47;;;1.60;;
36105;SDS011;22159;55.736;38.048;2023-03-09T04:32:28;2.35;;;1.70;;
36105;SDS011;22159;55.736;38.048;2023-03-09T04:34:54;2.55;;;1.58;;
36105;SDS011;22159;55.736;38.048;2023-03-09T04:37:20;2.58;;;1.30;;
36105;SDS011;22159;55.736;38.048;2023-03-09T04:39:46;5.03;;;1.40;;
36105;SDS011;22159;55.736;38.048;2023-03-09T04:42:12;2.13;;;1.05;;
36105;SDS011;22159;55.736;38.048;2023-03-09T04:44:38;2.75;;;1.20;;
36105;SDS011;22159;55.736;38.048;2023-03-09T04:47:04;2.55;;;1.30;;
36105;SDS011;22159;55.736;38.048;2023-03-09T04:49:31;2.63;;;1.17;;
36105;SDS011;22159;55.736;38.048;2023-03-09T04:51:57;2.15;;;1.10;;
36105;SDS011;22159;55.736;38.048;2023-03-09T04:54:23;2.53;;;0.95;;
36105;SDS011;22159;55.736;38.048;2023-03-09T04:56:49;4.72;;;1.30;;
36105;SDS011;22159;55.736;38.048;2023-03-09T04:59:15;1.20;;;0.70;;
36105;SDS011;22159;55.736;38.048;2023-03-09T05:01:41;1.98;;;0.98;;
36105;SDS011;22159;55.736;38.048;2023-03-09T05:04:08;1.65;;;1.00;;
36105;SDS011;22159;55.736;38.048;2023-03-09T05:06:34;1.63;;;0.80;;
36105;SDS011;22159;55.736;38.048;2023-03-09T05:09:01;1.38;;;0.80;;
36105;SDS011;22159;55.736;38.048;2023-03-09T05:11:28;1.70;;;0.65;;
36105;SDS011;22159;55.736;38.048;2023-03-09T05:13:54;2.78;;;0.80;;
36105;SDS011;22159;55.736;38.048;2023-03-09T05:16:20;1.50;;;0.85;;
36105;SDS011;22159;55.736;38.048;2023-03-09T05:18:50;0.82;;;0.68;;
36105;SDS011;22159;55.736;38.048;2023-03-09T05:21:17;2.35;;;0.88;;
36105;SDS011;22159;55.736;38.048;2023-03-09T05:23:44;1.95;;;0.73;;
36105;SDS011;22159;55.736;38.048;2023-03-09T05:26:10;3.60;;;1.20;;
36105;SDS011;22159;55.736;38.048;2023-03-09T05:28:37;2.35;;;0.90;;
36105;SDS011;22159;55.736;38.048;2023-03-09T05:31:09;3.53;;;0.70;;
36105;SDS011;22159;55.736;38.048;2023-03-09T05:33:35;1.58;;;0.68;;
36105;SDS011;22159;55.736;38.048;2023-03-09T05:36:02;1.48;;;0.65;;
36105;SDS011;22159;55.736;38.048;2023-03-09T05:38:28;1.70;;;0.73;;
36105;SDS011;22159;55.736;38.048;2023-03-09T05:40:54;2.22;;;0.73;;
36105;SDS011;22159;55.736;38.048;2023-03-09T05:43:20;2.38;;;0.88;;
36105;SDS011;22159;55.736;38.048;2023-03-09T05:45:55;1.05;;;0.77;;
36105;SDS011;22159;55.736;38.048;2023-03-09T05:48:21;1.13;;;0.60;;
36105;SDS011;22159;55.736;38.048;2023-03-09T05:50:47;2.15;;;0.80;;
36105;SDS011;22159;55.736;38.048;2023-03-09T05:53:13;1.10;;;0.63;;
36105;SDS011;22159;55.736;38.048;2023-03-09T05:55:40;1.80;;;0.85;;
36105;SDS011;22159;55.736;38.048;2023-03-09T05:58:06;1.58;;;0.88;;
36105;SDS011;22159;55.736;38.048;2023-03-09T06:00:32;1.77;;;0.70;;
36105;SDS011;22159;55.736;38.048;2023-03-09T06:02:58;2.67;;;0.68;;
36105;SDS011;22159;55.736;38.048;2023-03-09T06:05:24;1.75;;;0.80;;
36105;SDS011;22159;55.736;38.048;2023-03-09T06:07:50;1.35;;;0.75;;
36105;SDS011;22159;55.736;38.048;2023-03-09T06:10:16;1.13;;;0.73;;
36105;SDS011;22159;55.736;38.048;2023-03-09T06:12:42;3.10;;;0.93;;
36105;SDS011;22159;55.736;38.048;2023-03-09T06:15:08;1.27;;;0.68;;
36105;SDS011;22159;55.736;38.048;2023-03-09T06:17:35;1.75;;;0.70;;
36105;SDS011;22159;55.736;38.048;2023-03-09T06:20:01;0.88;;;0.50;;
36105;SDS011;22159;55.736;38.048;2023-03-09T06:22:28;2.75;;;0.60;;
36105;SDS011;22159;55.736;38.048;2023-03-09T06:24:54;3.03;;;0.60;;
36105;SDS011;22159;55.736;38.048;2023-03-09T06:27:20;1.70;;;0.70;;
36105;SDS011;22159;55.736;38.048;2023-03-09T06:29:46;2.67;;;0.77;;
36105;SDS011;22159;55.736;38.048;2023-03-09T06:32:12;1.23;;;0.63;;
36105;SDS011;22159;55.736;38.048;2023-03-09T06:34:38;1.17;;;0.60;;
36105;SDS011;22159;55.736;38.048;2023-03-09T06:37:04;1.40;;;0.80;;
36105;SDS011;22159;55.736;38.048;2023-03-09T06:39:30;0.80;;;0.50;;
36105;SDS011;22159;55.736;38.048;2023-03-09T06:41:56;1.73;;;0.77;;
36105;SDS011;22159;55.736;38.048;2023-03-09T06:44:22;1.45;;;0.70;;
36105;SDS011;22159;55.736;38.048;2023-03-09T06:46:48;3.13;;;0.70;;
36105;SDS011;22159;55.736;38.048;2023-03-09T06:49:14;1.33;;;0.65;;
36105;SDS011;22159;55.736;38.048;2023-03-09T06:51:40;0.85;;;0.63;;
36105;SDS011;22159;55.736;38.048;2023-03-09T06:54:06;1.50;;;0.60;;
36105;SDS011;22159;55.736;38.048;2023-03-09T06:56:32;3.35;;;0.50;;
36105;SDS011;22159;55.736;38.048;2023-03-09T06:58:58;2.72;;;0.68;;
36105;SDS011;22159;55.736;38.048;2023-03-09T07:01:25;2.88;;;0.70;;
36105;SDS011;22159;55.736;38.048;2023-03-09T07:03:51;2.20;;;0.60;;
36105;SDS011;22159;55.736;38.048;2023-03-09T07:06:17;0.90;;;0.40;;
36105;SDS011;22159;55.736;38.048;2023-03-09T07:08:43;1.17;;;0.55;;
36105;SDS011;22159;55.736;38.048;2023-03-09T07:11:09;1.67;;;0.70;;
36105;SDS011;22159;55.736;38.048;2023-03-09T07:13:35;1.10;;;0.65;;
36105;SDS011;22159;55.736;38.048;2023-03-09T07:16:02;1.02;;;0.60;;
36105;SDS011;22159;55.736;38.048;2023-03-09T07:18:28;0.82;;;0.60;;
36105;SDS011;22159;55.736;38.048;2023-03-09T07:20:54;1.33;;;0.50;;
36105;SDS011;22159;55.736;38.048;2023-03-09T07:23:20;1.33;;;0.50;;
36105;SDS011;22159;55.736;38.048;2023-03-09T07:25:46;1.05;;;0.70;;
36105;SDS011;22159;55.736;38.048;2023-03-09T07:28:12;1.10;;;0.68;;
36105;SDS011;22159;55.736;38.048;2023-03-09T07:30:38;1.60;;;0.60;;
36105;SDS011;22159;55.736;38.048;2023-03-09T07:33:05;1.27;;;0.65;;
36105;SDS011;22159;55.736;38.048;2023-03-09T07:35:31;0.63;;;0.40;;
36105;SDS011;22159;55.736;38.048;2023-03-09T07:37:57;1.30;;;0.60;;
36105;SDS011;22159;55.736;38.048;2023-03-09T07:40:23;1.45;;;0.50;;
36105;SDS011;22159;55.736;38.048;2023-03-09T07:42:49;1.55;;;0.60;;
36105;SDS011;22159;55.736;38.048;2023-03-09T07:45:18;1.00;;;0.52;;
36105;SDS011;22159;55.736;38.048;2023-03-09T07:47:44;2.33;;;0.45;;
36105;SDS011;22159;55.736;38.048;2023-03-09T07:50:10;1.60;;;0.50;;
36105;SDS011;22159;55.736;38.048;2023-03-09T07:52:36;0.45;;;0.43;;
36105;SDS011;22159;55.736;38.048;2023-03-09T07:55:02;0.52;;;0.50;;
36105;SDS011;22159;55.736;38.048;2023-03-09T07:57:31;0.90;;;0.38;;
36105;SDS011;22159;55.736;38.048;2023-03-09T07:59:58;0.93;;;0.60;;
36105;SDS011;22159;55.736;38.048;2023-03-09T08:02:24;1.48;;;0.60;;
36105;SDS011;22159;55.736;38.048;2023-03-09T08:04:50;0.93;;;0.55;;
36105;SDS011;22159;55.736;38.048;2023-03-09T08:07:16;0.80;;;0.60;;
36105;SDS011;22159;55.736;38.048;2023-03-09T08:09:42;0.95;;;0.43;;
36105;SDS011;22159;55.736;38.048;2023-03-09T08:12:09;1.40;;;0.50;;
36105;SDS011;22159;55.736;38.048;2023-03-09T08:14:35;2.22;;;0.70;;
36105;SDS011;22159;55.736;38.048;2023-03-09T08:17:01;1.58;;;0.63;;
36105;SDS011;22159;55.736;38.048;2023-03-09T08:19:28;0.98;;;0.60;;
36105;SDS011;22159;55.736;38.048;2023-03-09T08:21:55;1.55;;;0.60;;
36105;SDS011;22159;55.736;38.048;2023-03-09T08:24:21;2.55;;;0.60;;
36105;SDS011;22159;55.736;38.048;2023-03-09T08:26:48;1.08;;;0.70;;
36105;SDS011;22159;55.736;38.048;2023-03-09T08:29:14;2.10;;;0.68;;
36105;SDS011;22159;55.736;38.048;2023-03-09T08:31:40;1.23;;;0.50;;
36105;SDS011;22159;55.736;38.048;2023-03-09T08:34:06;2.03;;;0.60;;
36105;SDS011;22159;55.736;38.048;2023-03-09T08:36:32;1.85;;;0.70;;
36105;SDS011;22159;55.736;38.048;2023-03-09T08:38:58;1.73;;;0.57;;
36105;SDS011;22159;55.736;38.048;2023-03-09T08:41:25;2.17;;;0.55;;
36105;SDS011;22159;55.736;38.048;2023-03-09T08:43:51;1.13;;;0.63;;
36105;SDS011;22159;55.736;38.048;2023-03-09T08:46:19;2.17;;;0.60;;
36105;SDS011;22159;55.736;38.048;2023-03-09T08:48:46;2.38;;;0.75;;
36105;SDS011;22159;55.736;38.048;2023-03-09T08:51:15;1.58;;;0.70;;
36105;SDS011;22159;55.736;38.048;2023-03-09T08:53:42;1.35;;;0.52;;
36105;SDS011;22159;55.736;38.048;2023-03-09T08:56:10;1.13;;;0.60;;
36105;SDS011;22159;55.736;38.048;2023-03-09T08:58:36;1.10;;;0.60;;
36105;SDS011;22159;55.736;38.048;2023-03-09T09:01:03;1.65;;;0.68;;
36105;SDS011;22159;55.736;38.048;2023-03-09T09:03:30;1.20;;;0.73;;
36105;SDS011;22159;55.736;38.048;2023-03-09T09:05:56;1.75;;;0.70;;
36105;SDS011;22159;55.736;38.048;2023-03-09T09:08:27;1.70;;;0.60;;
36105;SDS011;22159;55.736;38.048;2023-03-09T09:10:54;1.17;;;0.55;;
36105;SDS011;22159;55.736;38.048;2023-03-09T09:13:22;1.70;;;0.50;;
36105;SDS011;22159;55.736;38.048;2023-03-09T09:15:51;0.60;;;0.50;;
36105;SDS011;22159;55.736;38.048;2023-03-09T09:18:17;1.85;;;0.80;;
36105;SDS011;22159;55.736;38.048;2023-03-09T09:20:43;0.85;;;0.68;;
36105;SDS011;22159;55.736;38.048;2023-03-09T09:23:09;1.23;;;0.77;;
36105;SDS011;22159;55.736;38.048;2023-03-09T09:25:35;2.83;;;0.85;;
36105;SDS011;22159;55.736;38.048;2023-03-09T09:28:01;1.52;;;0.80;;
36105;SDS011;22159;55.736;38.048;2023-03-09T09:30:28;2.40;;;0.90;;
36105;SDS011;22159;55.736;38.048;2023-03-09T09:32:57;2.42;;;0.90;;
36105;SDS011;22159;55.736;38.048;2023-03-09T09:35:23;1.35;;;0.98;;
36105;SDS011;22159;55.736;38.048;2023-03-09T09:37:49;1.52;;;0.80;;
36105;SDS011;22159;55.736;38.048;2023-03-09T09:40:17;3.13;;;0.85;;
36105;SDS011;22159;55.736;38.048;2023-03-09T09:42:43;2.03;;;0.80;;
36105;SDS011;22159;55.736;38.048;2023-03-09T09:45:26;1.55;;;0.75;;
36105;SDS011;22159;55.736;38.048;2023-03-09T09:47:53;1.35;;;0.60;;
36105;SDS011;22159;55.736;38.048;2023-03-09T09:50:21;2.20;;;0.80;;
36105;SDS011;22159;55.736;38.048;2023-03-09T09:52:53;0.75;;;0.57;;
36105;SDS011;22159;55.736;38.048;2023-03-09T09:55:54;1.73;;;0.95;;
36105;SDS011;22159;55.736;38.048;2023-03-09T10:00:50;1.17;;;0.73;;
36105;SDS011;22159;55.736;38.048;2023-03-09T10:03:19;1.38;;;0.73;;
36105;SDS011;22159;55.736;38.048;2023-03-09T10:05:50;1.33;;;0.73;;
36105;SDS011;22159;55.736;38.048;2023-03-09T10:10:43;0.95;;;0.75;;
36105;SDS011;22159;55.736;38.048;2023-03-09T10:13:20;1.50;;;0.68;;
36105;SDS011;22159;55.736;38.048;2023-03-09T10:15:47;0.73;;;0.60;;
36105;SDS011;22159;55.736;38.048;2023-03-09T10:18:14;1.67;;;0.90;;
36105;SDS011;22159;55.736;38.048;2023-03-09T10:20:48;0.95;;;0.70;;
36105;SDS011;22159;55.736;38.048;2023-03-09T10:23:22;2.50;;;0.90;;
36105;SDS011;22159;55.736;38.048;2023-03-09T10:25:50;1.33;;;0.60;;
36105;SDS011;22159;55.736;38.048;2023-03-09T10:28:19;2.22;;;0.80;;
36105;SDS011;22159;55.736;38.048;2023-03-09T10:30:46;1.05;;;0.73;;
36105;SDS011;22159;55.736;38.048;2023-03-09T10:33:16;1.83;;;0.93;;
36105;SDS011;22159;55.736;38.048;2023-03-09T10:38:12;0.85;;;0.65;;
36105;SDS011;22159;55.736;38.048;2023-03-09T10:40:43;2.13;;;0.80;;
36105;SDS011;22159;55.736;38.048;2023-03-09T10:43:17;1.33;;;0.73;;
36105;SDS011;22159;55.736;38.048;2023-03-09T10:45:44;1.92;;;0.80;;
36105;SDS011;22159;55.736;38.048;2023-03-09T10:48:18;1.85;;;0.70;;
36105;SDS011;22159;55.736;38.048;2023-03-09T10:51:53;2.13;;;0.55;;
36105;SDS011;22159;55.736;38.048;2023-03-09T10:53:43;1.25;;;0.60;;
36105;SDS011;22159;55.736;38.048;2023-03-09T10:58:38;1.33;;;0.80;;
36105;SDS011;22159;55.736;38.048;2023-03-09T11:03:37;1.50;;;0.75;;
36105;SDS011;22159;55.736;38.048;2023-03-09T11:08:36;1.95;;;0.73;;
36105;SDS011;22159;55.736;38.048;2023-03-09T11:11:03;1.10;;;0.70;;
36105;SDS011;22159;55.736;38.048;2023-03-09T11:13:30;1.23;;;0.80;;
36105;SDS011;22159;55.736;38.048;2023-03-09T11:16:03;1.00;;;0.70;;
36105;SDS011;22159;55.736;38.048;2023-03-09T11:18:30;1.40;;;0.95;;
36105;SDS011;22159;55.736;38.048;2023-03-09T11:20:56;0.65;;;0.65;;
36105;SDS011;22159;55.736;38.048;2023-03-09T11:23:26;1.48;;;0.60;;
36105;SDS011;22159;55.736;38.048;2023-03-09T11:31:16;2.47;;;0.70;;
36105;SDS011;22159;55.736;38.048;2023-03-09T11:33:42;1.65;;;0.55;;
36105;SDS011;22159;55.736;38.048;2023-03-09T11:36:16;1.08;;;0.47;;
36105;SDS011;22159;55.736;38.048;2023-03-09T11:38:44;1.65;;;0.60;;
36105;SDS011;22159;55.736;38.048;2023-03-09T11:41:14;0.82;;;0.57;;
36105;SDS011;22159;55.736;38.048;2023-03-09T11:43:41;2.15;;;0.60;;
36105;SDS011;22159;55.736;38.048;2023-03-09T11:46:11;1.60;;;0.55;;
36105;SDS011;22159;55.736;38.048;2023-03-09T11:48:48;1.35;;;0.50;;
36105;SDS011;22159;55.736;38.048;2023-03-09T11:51:23;0.98;;;0.50;;
36105;SDS011;22159;55.736;38.048;2023-03-09T11:56:24;1.25;;;0.73;;
36105;SDS011;22159;55.736;38.048;2023-03-09T11:58:53;1.90;;;0.85;;
36105;SDS011;22159;55.736;38.048;2023-03-09T12:01:27;1.35;;;0.60;;
36105;SDS011;22159;55.736;38.048;2023-03-09T12:03:57;4.20;;;0.80;;
36105;SDS011;22159;55.736;38.048;2023-03-09T12:06:29;2.22;;;0.52;;
36105;SDS011;22159;55.736;38.048;2023-03-09T12:08:56;1.33;;;0.90;;
36105;SDS011;22159;55.736;38.048;2023-03-09T12:11:26;2.25;;;0.50;;
36105;SDS011;22159;55.736;38.048;2023-03-09T12:13:56;1.85;;;0.70;;
36105;SDS011;22159;55.736;38.048;2023-03-09T12:16:30;1.23;;;0.60;;
36105;SDS011;22159;55.736;38.048;2023-03-09T12:19:02;1.27;;;0.55;;
36105;SDS011;22159;55.736;38.048;2023-03-09T12:21:30;1.15;;;0.60;;
36105;SDS011;22159;55.736;38.048;2023-03-09T12:23:57;1.42;;;0.50;;
36105;SDS011;22159;55.736;38.048;2023-03-09T12:26:28;3.08;;;0.70;;
36105;SDS011;22159;55.736;38.048;2023-03-09T12:31:27;1.35;;;0.50;;
36105;SDS011;22159;55.736;38.048;2023-03-09T12:36:24;0.88;;;0.32;;
36105;SDS011;22159;55.736;38.048;2023-03-09T12:49:55;1.48;;;0.70;;
36105;SDS011;22159;55.736;38.048;2023-03-09T12:54:55;1.95;;;0.63;;
36105;SDS011;22159;55.736;38.048;2023-03-09T12:57:21;1.95;;;0.70;;
36105;SDS011;22159;55.736;38.048;2023-03-09T12:59:48;1.52;;;0.70;;
36105;SDS011;22159;55.736;38.048;2023-03-09T13:02:48;1.80;;;0.80;;
36105;SDS011;22159;55.736;38.048;2023-03-09T13:05:11;2.63;;;1.00;;
36105;SDS011;22159;55.736;38.048;2023-03-09T13:07:37;3.13;;;0.70;;
36105;SDS011;22159;55.736;38.048;2023-03-09T13:10:04;2.15;;;0.70;;
36105;SDS011;22159;55.736;38.048;2023-03-09T13:12:32;1.48;;;0.60;;
36105;SDS011;22159;55.736;38.048;2023-03-09T13:15:03;2.10;;;0.70;;
36105;SDS011;22159;55.736;38.048;2023-03-09T13:20:13;1.25;;;0.63;;
36105;SDS011;22159;55.736;38.048;2023-03-09T13:22:39;1.33;;;0.65;;
36105;SDS011;22159;55.736;38.048;2023-03-09T13:25:39;2.25;;;1.10;;
36105;SDS011;22159;55.736;38.048;2023-03-09T13:28:02;2.78;;;0.75;;
36105;SDS011;22159;55.736;38.048;2023-03-09T13:30:29;1.80;;;0.90;;
36105;SDS011;22159;55.736;38.048;2023-03-09T13:35:24;1.88;;;0.70;;
36105;SDS011;22159;55.736;38.048;2023-03-09T13:37:54;3.00;;;0.70;;
36105;SDS011;22159;55.736;38.048;2023-03-09T13:40:31;1.55;;;1.00;;
36105;SDS011;22159;55.736;38.048;2023-03-09T13:42:58;2.25;;;1.00;;
36105;SDS011;22159;55.736;38.048;2023-03-09T13:45:27;1.50;;;0.90;;
36105;SDS011;22159;55.736;38.048;2023-03-09T13:47:56;3.78;;;0.98;;
36105;SDS011;22159;55.736;38.048;2023-03-09T13:50:24;2.22;;;1.02;;
36105;SDS011;22159;55.736;38.048;2023-03-09T13:53:04;2.38;;;0.90;;
36105;SDS011;22159;55.736;38.048;2023-03-09T13:55:30;2.17;;;1.10;;
36105;SDS011;22159;55.736;38.048;2023-03-09T14:00:59;1.08;;;0.75;;
36105;SDS011;22159;55.736;38.048;2023-03-09T14:03:26;2.30;;;0.80;;
36105;SDS011;22159;55.736;38.048;2023-03-09T14:06:11;2.15;;;1.00;;
36105;SDS011;22159;55.736;38.048;2023-03-09T14:08:42;2.30;;;1.20;;
36105;SDS011;22159;55.736;38.048;2023-03-09T14:11:12;1.52;;;0.70;;
36105;SDS011;22159;55.736;38.048;2023-03-09T14:13:43;3.22;;;0.98;;
36105;SDS011;22159;55.736;38.048;2023-03-09T14:16:13;1.92;;;0.88;;
36105;SDS011;22159;55.736;38.048;2023-03-09T14:18:41;1.58;;;0.88;;
36105;SDS011;22159;55.736;38.048;2023-03-09T14:21:21;2.08;;;0.90;;
36105;SDS011;22159;55.736;38.048;2023-03-09T14:23:48;2.63;;;1.10;;
36105;SDS011;22159;55.736;38.048;2023-03-09T14:26:28;1.40;;;0.98;;
36105;SDS011;22159;55.736;38.048;2023-03-09T14:28:58;1.48;;;0.85;;
36105;SDS011;22159;55.736;38.048;2023-03-09T14:31:25;2.08;;;1.00;;
36105;SDS011;22159;55.736;38.048;2023-03-09T14:36:28;2.15;;;1.10;;
36105;SDS011;22159;55.736;38.048;2023-03-09T14:39:00;1.20;;;0.80;;
36105;SDS011;22159;55.736;38.048;2023-03-09T14:41:28;1.10;;;0.80;;
36105;SDS011;22159;55.736;38.048;2023-03-09T14:43:54;3.95;;;0.95;;
36105;SDS011;22159;55.736;38.048;2023-03-09T14:46:22;2.33;;;0.95;;
36105;SDS011;22159;55.736;38.048;2023-03-09T14:48:59;3.85;;;0.95;;
36105;SDS011;22159;55.736;38.048;2023-03-09T14:51:27;2.72;;;1.08;;
36105;SDS011;22159;55.736;38.048;2023-03-09T14:56:26;2.00;;;1.00;;
36105;SDS011;22159;55.736;38.048;2023-03-09T14:58:53;1.02;;;0.75;;
36105;SDS011;22159;55.736;38.048;2023-03-09T15:01:20;3.70;;;1.15;;
36105;SDS011;22159;55.736;38.048;2023-03-09T15:03:54;2.88;;;1.08;;
36105;SDS011;22159;55.736;38.048;2023-03-09T15:06:22;1.92;;;0.50;;
36105;SDS011;22159;55.736;38.048;2023-03-09T15:08:48;3.40;;;0.70;;
36105;SDS011;22159;55.736;38.048;2023-03-09T15:11:15;3.38;;;1.10;;
36105;SDS011;22159;55.736;38.048;2023-03-09T15:13:41;2.03;;;0.98;;
36105;SDS011;22159;55.736;38.048;2023-03-09T15:16:08;3.83;;;1.23;;
36105;SDS011;22159;55.736;38.048;2023-03-09T15:18:34;2.42;;;1.00;;
36105;SDS011;22159;55.736;38.048;2023-03-09T15:21:00;3.53;;;0.90;;
36105;SDS011;22159;55.736;38.048;2023-03-09T15:23:26;2.22;;;1.10;;
36105;SDS011;22159;55.736;38.048;2023-03-09T15:25:53;1.95;;;0.88;;
36105;SDS011;22159;55.736;38.048;2023-03-09T15:28:19;2.08;;;1.00;;
36105;SDS011;22159;55.736;38.048;2023-03-09T15:30:45;1.88;;;0.95;;
36105;SDS011;22159;55.736;38.048;2023-03-09T15:33:11;3.08;;;0.90;;
36105;SDS011;22159;55.736;38.048;2023-03-09T15:35:39;1.95;;;0.90;;
36105;SDS011;22159;55.736;38.048;2023-03-09T15:38:05;2.78;;;1.10;;
36105;SDS011;22159;55.736;38.048;2023-03-09T15:40:31;3.85;;;0.70;;